This is the latest recevied weather packets stored in our database for station/object KELD. If no packets are shown the sender has not sent any weather packets the latest 10 day(s).
| Time | Temp. | Humidity | Pressure | Rain* | Wind** | Luminosity | Snow |
|---|---|---|---|---|---|---|---|
| 1777777410 | 11.67° C | 87% | 1019.6 hPa | - | - | - | - |
| 1777776812 | 13.89° C | 76% | 1018.6 hPa | - | - | - | - |
| 1777776211 | 13.89° C | 76% | 1018.6 hPa | - | - | - | - |
| 1777775613 | 13.89° C | 76% | 1018.6 hPa | - | - | - | - |
| 1777775010 | 13.89° C | 76% | 1018.6 hPa | - | - | - | - |
| 1777774413 | 13.89° C | 76% | 1018.6 hPa | - | - | - | - |
| 1777773813 | 13.89° C | 76% | 1018.6 hPa | - | - | - | - |
| 1777773214 | 16.67° C | 67% | 1018.3 hPa | - | - | - | - |
| 1777771410 | 16.67° C | 67% | 1018.3 hPa | - | - | - | - |
| 1777768411 | 21.67° C | 35% | 1017.9 hPa | - | - | - | - |
| 1777767932 | 21.67° C | 35% | 1017.9 hPa | - | - | - | - |
| 1777767208 | 21.67° C | 35% | 1017.9 hPa | - | - | - | - |
| 1777766613 | 21.67° C | 35% | 1017.9 hPa | - | - | - | - |
| 1777765412 | 22.78° C | 29% | 1017.9 hPa | - | - | - | - |
| 1777764814 | 22.78° C | 29% | 1017.9 hPa | - | - | - | - |
| 1777761811 | 22.78° C | 31% | 1017.9 hPa | - | - | - | - |
| 1777761214 | 22.78° C | 31% | 1017.9 hPa | - | - | - | - |
| 1777760609 | 22.78° C | 31% | 1017.9 hPa | - | - | - | - |
| 1777759413 | 22.78° C | 31% | 1017.9 hPa | - | - | - | - |
| 1777758810 | 21.67° C | 35% | 1018.6 hPa | - | - | - | - |
| 1777757611 | 21.67° C | 35% | 1018.6 hPa | - | - | - | - |
| 1777745013 | 20.56° C | 30% | 1020.7 hPa | - | - | - | - |
| 1777739010 | 18.89° C | 42% | 1021 hPa | - | - | - | - |
| 1777737338 | 17.78° C | 39% | 1020.7 hPa | - | - | - | - |
| 1777736015 | 17.78° C | 39% | 1020.7 hPa | - | - | - | - |
* Rain since midnight (hover to see other rain measurements)
** Current wind speed in m/s (hover to see current wind gust speed)